createdAt,value
2022-09-05T00:02:22.337Z,1.60
2022-09-05T00:08:42.254Z,1.60
2022-09-05T00:11:49.455Z,1.60
2022-09-05T00:15:14.618Z,1.50
2022-09-05T00:20:58.808Z,1.80
2022-09-05T00:24:21.706Z,1.90
2022-09-05T00:24:45.631Z,1.80
2022-09-05T00:27:23.870Z,2.00
2022-09-05T00:30:41.987Z,1.80
2022-09-05T00:33:17.092Z,1.90
2022-09-05T00:36:00.945Z,2.00
2022-09-05T00:38:36.464Z,1.80
2022-09-05T00:42:05.007Z,1.60
2022-09-05T00:45:30.182Z,1.50
2022-09-05T00:49:32.421Z,2.10
2022-09-05T00:52:36.272Z,1.80
2022-09-05T00:55:51.631Z,1.60
2022-09-05T00:59:41.056Z,1.80
2022-09-05T01:03:31.757Z,1.70
2022-09-05T01:07:05.403Z,1.90
2022-09-05T01:10:47.386Z,1.60
2022-09-05T01:13:35.932Z,1.70
2022-09-05T01:16:13.585Z,1.80
2022-09-05T01:19:05.781Z,1.70
2022-09-05T01:21:43.806Z,2.00
2022-09-05T01:24:33.159Z,1.80
2022-09-05T01:28:08.377Z,1.70
2022-09-05T01:31:14.101Z,2.30
2022-09-05T01:35:11.308Z,1.70
2022-09-05T01:38:24.256Z,1.90
2022-09-05T01:41:46.817Z,1.60
2022-09-05T01:45:44.524Z,1.60
2022-09-05T01:49:29.595Z,1.90
2022-09-05T01:53:36.740Z,1.90
2022-09-05T01:57:20.021Z,1.80
2022-09-05T02:01:27.947Z,1.70
2022-09-05T02:04:53.421Z,1.80
2022-09-05T02:08:15.764Z,1.80
2022-09-05T02:11:36.163Z,2.00
2022-09-05T02:15:21.228Z,1.90
2022-09-05T02:19:02.308Z,2.20
2022-09-05T02:22:24.057Z,1.70
2022-09-05T02:26:01.347Z,2.00
2022-09-05T02:30:06.127Z,1.80
2022-09-05T02:34:28.443Z,2.00
2022-09-05T02:41:42.863Z,2.20
2022-09-05T02:45:12.356Z,2.10
2022-09-05T02:46:48.168Z,2.30
2022-09-05T02:51:12.809Z,2.20
2022-09-05T02:57:29.311Z,2.20
2022-09-05T02:58:05.567Z,1.90
2022-09-05T03:01:06.275Z,2.00
2022-09-05T03:04:28.238Z,1.90
2022-09-05T03:07:46.279Z,2.20
2022-09-05T03:11:01.554Z,2.20
2022-09-05T03:15:00.244Z,2.60
2022-09-05T03:18:20.662Z,2.50
2022-09-05T03:22:00.388Z,2.20
2022-09-05T03:26:11.873Z,2.10
2022-09-05T03:30:13.523Z,2.10
2022-09-05T03:34:11.552Z,2.20
2022-09-05T03:37:16.853Z,2.50
2022-09-05T03:40:29.882Z,2.40
2022-09-05T03:43:25.893Z,2.60
2022-09-05T03:46:03.785Z,2.60
2022-09-05T03:52:56.367Z,2.60
2022-09-05T03:57:12.691Z,2.40
2022-09-05T03:57:23.882Z,2.60
2022-09-05T03:59:15.852Z,2.60
2022-09-05T04:06:36.146Z,2.30
2022-09-05T04:08:16.627Z,2.60
2022-09-05T04:09:06.455Z,2.60
2022-09-05T04:12:13.020Z,2.40
2022-09-05T04:15:10.664Z,2.40
2022-09-05T04:18:06.226Z,2.40
2022-09-05T04:21:11.213Z,2.80
2022-09-05T04:23:52.160Z,2.60
2022-09-05T04:27:17.816Z,2.90
2022-09-05T04:34:33.364Z,2.90
2022-09-05T04:38:12.739Z,3.10
2022-09-05T04:41:52.903Z,3.10
2022-09-05T04:45:10.314Z,3.10
2022-09-05T04:48:02.955Z,2.40
2022-09-05T04:51:39.464Z,2.50
2022-09-05T04:55:02.875Z,2.70
2022-09-05T04:57:38.370Z,3.00
2022-09-05T05:05:58.391Z,2.80
2022-09-05T05:06:18.134Z,2.60
2022-09-05T05:06:43.909Z,2.80
2022-09-05T05:09:33.728Z,2.50
2022-09-05T05:17:57.275Z,2.90
2022-09-05T05:18:06.719Z,2.60
2022-09-05T05:19:17.040Z,3.00
2022-09-05T05:22:14.112Z,2.70
2022-09-05T05:25:35.214Z,2.80
2022-09-05T05:29:21.041Z,2.50
2022-09-05T05:32:02.051Z,2.70
2022-09-05T05:34:32.208Z,3.00
2022-09-05T05:37:29.837Z,3.10
2022-09-05T05:40:15.416Z,3.30
2022-09-05T05:45:17.847Z,2.90
2022-09-05T05:47:52.082Z,2.90
2022-09-05T05:50:27.181Z,2.80
2022-09-05T05:53:31.992Z,2.80
2022-09-05T05:56:42.835Z,2.40
2022-09-05T06:00:06.966Z,2.90
2022-09-05T06:03:25.526Z,3.10
2022-09-05T06:06:12.792Z,2.60
2022-09-05T06:13:28.952Z,3.10
2022-09-05T06:14:57.884Z,2.80
2022-09-05T06:15:12.338Z,2.90
2022-09-05T06:18:18.508Z,2.80
2022-09-05T06:22:08.300Z,3.30
2022-09-05T06:25:16.454Z,2.80
2022-09-05T06:28:17.463Z,2.90
2022-09-05T06:31:29.071Z,3.00
2022-09-05T06:33:57.176Z,2.50
2022-09-05T06:36:38.914Z,2.90
2022-09-05T06:39:47.891Z,2.70
2022-09-05T06:42:42.092Z,2.60
2022-09-05T06:45:38.103Z,3.10
2022-09-05T06:48:45.561Z,2.80
2022-09-05T06:51:37.369Z,2.80
2022-09-05T06:54:36.835Z,3.30
2022-09-05T06:57:35.855Z,2.60
2022-09-05T07:00:30.222Z,3.00
2022-09-05T07:03:00.725Z,2.80
2022-09-05T07:05:45.676Z,2.70
2022-09-05T07:08:35.910Z,3.00
2022-09-05T07:11:15.631Z,2.90
2022-09-05T07:14:15.029Z,3.10
2022-09-05T07:16:51.037Z,3.20
2022-09-05T07:19:25.491Z,2.70
2022-09-05T07:22:04.745Z,2.60
2022-09-05T07:24:55.086Z,2.90
2022-09-05T07:28:54.607Z,2.70
2022-09-05T07:32:12.549Z,3.00
2022-09-05T07:36:23.566Z,2.50
2022-09-05T07:39:54.117Z,2.70
2022-09-05T07:43:22.047Z,2.80
2022-09-05T07:46:21.751Z,2.80
2022-09-05T07:50:50.043Z,2.90
2022-09-05T07:57:15.710Z,4.00
2022-09-05T07:57:52.230Z,3.00
2022-09-05T08:00:58.693Z,2.90
2022-09-05T08:04:25.604Z,2.80
2022-09-05T08:07:56.096Z,2.70
2022-09-05T08:12:09.958Z,3.10
2022-09-05T08:16:10.398Z,2.50
2022-09-05T08:20:09.364Z,3.00
2022-09-05T08:24:25.077Z,2.60
2022-09-05T08:27:16.981Z,3.00
2022-09-05T08:30:26.986Z,3.00
2022-09-05T08:33:52.609Z,2.80
2022-09-05T08:37:33.705Z,3.00
2022-09-05T08:41:23.652Z,2.70
2022-09-05T08:46:39.917Z,2.70
2022-09-05T08:49:58.849Z,2.50
2022-09-05T08:53:45.808Z,2.70
2022-09-05T08:57:53.068Z,2.50
2022-09-05T09:02:45.100Z,2.60
2022-09-05T09:05:21.064Z,2.70
2022-09-05T09:09:11.789Z,2.80
2022-09-05T09:12:44.779Z,2.80
2022-09-05T09:15:40.433Z,2.60
2022-09-05T09:18:42.435Z,2.70
2022-09-05T09:22:04.980Z,2.70
2022-09-05T09:25:46.351Z,2.90
2022-09-05T09:29:53.095Z,2.80
2022-09-05T09:34:03.884Z,2.80
2022-09-05T09:38:09.949Z,2.70
2022-09-05T09:41:47.853Z,2.70
2022-09-05T09:45:28.399Z,2.60
2022-09-05T09:48:47.990Z,2.60
2022-09-05T09:52:00.497Z,2.80
2022-09-05T09:54:44.728Z,2.90
2022-09-05T09:57:57.713Z,2.50
2022-09-05T10:00:46.113Z,3.00
2022-09-05T10:10:23.312Z,2.60
2022-09-05T10:10:53.064Z,3.40
2022-09-05T10:11:53.444Z,3.00
2022-09-05T10:15:23.219Z,3.10
2022-09-05T10:18:54.833Z,3.20
2022-09-05T10:26:05.677Z,3.10
2022-09-05T10:29:38.055Z,3.10
2022-09-05T10:35:16.922Z,3.10
2022-09-05T10:37:02.719Z,3.30
2022-09-05T10:39:37.299Z,2.90
2022-09-05T10:42:20.288Z,3.20
2022-09-05T10:44:55.528Z,3.00
2022-09-05T10:47:39.189Z,3.30
2022-09-05T10:50:54.170Z,3.30
2022-09-05T10:53:21.330Z,2.90
2022-09-05T10:56:55.064Z,2.90
2022-09-05T11:02:23.407Z,2.80
2022-09-05T11:03:54.024Z,2.80
2022-09-05T11:06:40.098Z,3.20
2022-09-05T11:09:40.153Z,3.10
2022-09-05T11:12:24.521Z,3.20
2022-09-05T11:14:56.114Z,2.90
2022-09-05T11:17:36.953Z,2.50
2022-09-05T11:20:35.590Z,2.50
2022-09-05T11:23:15.062Z,2.40
2022-09-05T11:25:43.053Z,2.60
2022-09-05T11:28:16.865Z,2.70
2022-09-05T11:30:51.816Z,2.70
2022-09-05T11:39:51.091Z,2.90
2022-09-05T11:40:08.638Z,2.90
2022-09-05T11:40:28.469Z,2.10
2022-09-05T11:43:15.813Z,2.30
2022-09-05T11:46:16.852Z,2.20
2022-09-05T11:49:18.240Z,2.80
2022-09-05T11:52:13.915Z,2.50
2022-09-05T11:55:02.803Z,2.30
2022-09-05T11:57:58.622Z,3.50
2022-09-05T12:01:41.095Z,2.70
2022-09-05T12:04:33.493Z,2.80
2022-09-05T12:07:32.166Z,2.80
2022-09-05T12:10:45.814Z,2.20
2022-09-05T12:13:16.127Z,2.50
2022-09-05T12:15:53.493Z,2.40
2022-09-05T12:19:26.912Z,2.70
2022-09-05T12:22:23.826Z,2.50
2022-09-05T12:25:17.195Z,2.30
2022-09-05T12:28:46.656Z,2.30
2022-09-05T12:32:31.128Z,2.50
2022-09-05T12:40:44.762Z,2.20
2022-09-05T12:41:37.660Z,3.00
2022-09-05T12:43:31.647Z,2.60
2022-09-05T12:45:40.550Z,2.70
2022-09-05T12:48:38.699Z,2.40
2022-09-05T12:51:45.723Z,3.00
2022-09-05T12:54:32.541Z,2.40
2022-09-05T13:02:43.922Z,2.50
2022-09-05T13:03:08.456Z,2.50
2022-09-05T13:03:28.270Z,2.50
2022-09-05T13:06:05.085Z,2.50
2022-09-05T13:08:59.038Z,2.20
2022-09-05T13:14:56.951Z,2.40
2022-09-05T13:17:16.640Z,2.10
2022-09-05T13:19:51.819Z,2.30
2022-09-05T13:22:23.919Z,2.30
2022-09-05T13:25:01.322Z,2.40
2022-09-05T13:27:40.673Z,2.30
2022-09-05T13:31:59.675Z,2.60
2022-09-05T13:38:00.648Z,2.20
2022-09-05T13:38:11.032Z,2.70
2022-09-05T13:39:11.012Z,2.70
2022-09-05T13:41:48.820Z,2.30
2022-09-05T13:44:27.069Z,2.50
2022-09-05T13:47:29.909Z,2.70
2022-09-05T13:50:22.491Z,2.60
2022-09-05T13:52:58.426Z,2.70
2022-09-05T13:55:54.807Z,3.30
2022-09-05T13:58:56.426Z,3.00
2022-09-05T14:01:24.517Z,2.70
2022-09-05T14:10:35.736Z,2.70
2022-09-05T14:13:24.688Z,2.60
2022-09-05T14:16:00.188Z,2.30
2022-09-05T14:18:58.433Z,2.60
2022-09-05T14:21:33.678Z,2.40
2022-09-05T14:24:27.473Z,7.00
2022-09-05T14:27:31.841Z,2.40
2022-09-05T14:30:12.785Z,2.50
2022-09-05T14:37:45.785Z,2.60
2022-09-05T14:37:53.759Z,2.70
2022-09-05T14:39:38.858Z,2.40
2022-09-05T14:42:36.624Z,2.90
2022-09-05T14:45:31.428Z,2.20
2022-09-05T14:48:29.012Z,2.50
2022-09-05T14:51:01.911Z,2.50
2022-09-05T14:58:16.225Z,2.60
2022-09-05T15:02:55.114Z,2.50
2022-09-05T15:02:56.843Z,2.70
2022-09-05T15:05:20.847Z,5.70
2022-09-05T15:07:55.314Z,2.40
2022-09-05T15:12:17.669Z,2.70
2022-09-05T15:15:06.752Z,2.20
2022-09-05T15:18:50.260Z,2.40
2022-09-05T15:22:56.029Z,1.90
2022-09-05T15:26:35.381Z,2.60
2022-09-05T15:29:16.591Z,2.70
2022-09-05T15:33:13.601Z,2.20
2022-09-05T15:36:31.738Z,2.30
2022-09-05T15:40:24.336Z,2.10
2022-09-05T15:44:53.089Z,2.50
2022-09-05T15:48:47.118Z,2.50
2022-09-05T15:52:16.243Z,2.20
2022-09-05T15:55:16.716Z,2.80
2022-09-05T15:58:57.974Z,2.40
2022-09-05T16:02:25.055Z,2.40
2022-09-05T16:10:38.258Z,2.50
2022-09-05T16:10:50.847Z,2.30
2022-09-05T16:13:36.787Z,2.50
2022-09-05T16:20:51.026Z,2.10
2022-09-05T16:23:29.332Z,3.00
2022-09-05T16:23:33.598Z,2.50
2022-09-05T16:24:59.803Z,1.90
2022-09-05T16:27:51.671Z,2.30
2022-09-05T16:30:25.436Z,2.10
2022-09-05T16:33:05.505Z,2.30
2022-09-05T16:35:43.852Z,2.50
2022-09-05T16:38:24.080Z,2.30
2022-09-05T16:41:11.081Z,2.20
2022-09-05T16:43:45.568Z,2.40
2022-09-05T16:46:30.399Z,2.30
2022-09-05T16:49:13.421Z,2.10
2022-09-05T16:51:50.576Z,2.30
2022-09-05T16:54:51.462Z,2.10
2022-09-05T16:57:34.096Z,4.50
2022-09-05T17:00:04.611Z,2.70
2022-09-05T17:02:44.087Z,2.40
2022-09-05T17:05:39.136Z,2.60
2022-09-05T17:11:13.779Z,2.10
2022-09-05T17:13:57.704Z,1.80
2022-09-05T17:16:34.956Z,2.30
2022-09-05T17:19:02.902Z,2.10
2022-09-05T17:24:20.272Z,2.20
2022-09-05T17:29:35.286Z,2.10
2022-09-05T17:30:32.235Z,2.20
2022-09-05T17:32:50.147Z,2.10
2022-09-05T17:36:09.178Z,1.90
2022-09-05T17:39:06.090Z,2.10
2022-09-05T17:42:09.119Z,2.20
2022-09-05T17:45:24.554Z,5.90
2022-09-05T17:47:55.735Z,3.00
2022-09-05T17:51:28.307Z,2.10
2022-09-05T17:54:32.872Z,2.10
2022-09-05T17:58:10.626Z,2.30
2022-09-05T18:01:10.007Z,2.50
2022-09-05T18:03:55.563Z,2.20
2022-09-05T18:07:25.709Z,2.40
2022-09-05T18:10:12.874Z,2.00
2022-09-05T18:13:12.888Z,2.00
2022-09-05T18:15:38.301Z,2.50
2022-09-05T18:18:39.845Z,2.10
2022-09-05T18:21:21.842Z,2.20
2022-09-05T18:24:01.102Z,2.20
2022-09-05T18:26:35.933Z,2.30
2022-09-05T18:29:14.646Z,2.30
2022-09-05T18:31:43.629Z,2.00
2022-09-05T18:34:21.147Z,2.20
2022-09-05T18:37:57.758Z,2.70
2022-09-05T18:41:28.263Z,2.60
2022-09-05T18:44:20.605Z,2.90
2022-09-05T18:46:52.574Z,3.80
2022-09-05T18:50:25.517Z,4.30
2022-09-05T18:53:10.201Z,3.10
2022-09-05T18:56:12.288Z,2.50
2022-09-05T18:58:51.649Z,2.40
2022-09-05T19:01:36.368Z,2.20
2022-09-05T19:04:10.779Z,2.70
2022-09-05T19:07:10.970Z,2.50
2022-09-05T19:09:55.469Z,2.60
2022-09-05T19:12:38.825Z,2.60
2022-09-05T19:15:48.220Z,2.00
2022-09-05T19:23:13.728Z,2.60
2022-09-05T19:31:11.013Z,2.40
2022-09-05T19:37:03.293Z,2.40
2022-09-05T19:37:25.475Z,2.40
2022-09-05T19:38:16.391Z,2.30
2022-09-05T19:47:27.006Z,2.60
2022-09-05T19:47:40.611Z,2.40
2022-09-05T19:47:44.712Z,2.50
2022-09-05T19:49:13.736Z,2.30
2022-09-05T19:52:40.328Z,2.40
2022-09-05T19:56:08.441Z,2.50
2022-09-05T19:58:35.287Z,2.40
2022-09-05T20:02:05.490Z,2.50
2022-09-05T20:05:19.760Z,2.10
2022-09-05T20:08:49.717Z,2.50
2022-09-05T20:12:01.223Z,2.50
2022-09-05T20:14:35.694Z,2.80
2022-09-05T20:17:45.968Z,2.60
2022-09-05T20:20:28.268Z,2.40
2022-09-05T20:23:02.189Z,2.40
2022-09-05T20:25:47.256Z,5.00
2022-09-05T20:29:14.728Z,2.70
2022-09-05T20:33:13.952Z,2.50
2022-09-05T20:43:14.899Z,2.70
2022-09-05T20:43:23.464Z,2.60
2022-09-05T20:45:45.346Z,2.40
2022-09-05T20:54:06.802Z,2.50
2022-09-05T20:54:34.703Z,2.60
2022-09-05T20:58:31.266Z,2.30
2022-09-05T21:02:39.768Z,2.60
2022-09-05T21:06:50.503Z,2.30
2022-09-05T21:10:58.555Z,2.10
2022-09-05T21:14:58.553Z,2.00
2022-09-05T21:18:55.038Z,2.00
2022-09-05T21:22:57.571Z,1.80
2022-09-05T21:26:30.869Z,2.10
2022-09-05T21:30:38.863Z,1.70
2022-09-05T21:34:46.791Z,1.70
2022-09-05T21:38:44.673Z,1.90
2022-09-05T21:41:57.317Z,1.70
2022-09-05T21:47:42.893Z,1.50
2022-09-05T21:48:31.948Z,1.50
2022-09-05T21:51:59.960Z,1.60
2022-09-05T21:59:18.748Z,1.70
2022-09-05T22:00:20.671Z,1.40
2022-09-05T22:03:47.123Z,1.20
2022-09-05T22:07:14.735Z,1.50
2022-09-05T22:10:53.762Z,1.00
2022-09-05T22:14:54.648Z,1.20
2022-09-05T22:18:35.517Z,0.90
2022-09-05T22:22:23.483Z,1.10
2022-09-05T22:26:12.987Z,1.10
2022-09-05T22:29:26.909Z,1.00
2022-09-05T22:32:42.345Z,1.10
2022-09-05T22:35:42.115Z,1.30
2022-09-05T22:39:37.397Z,1.00
2022-09-05T22:43:14.374Z,1.10
2022-09-05T22:50:49.938Z,0.90
2022-09-05T22:54:07.680Z,1.00
2022-09-05T22:56:58.466Z,1.10
2022-09-05T23:00:29.372Z,0.90
2022-09-05T23:04:37.388Z,0.90
2022-09-05T23:07:44.426Z,1.00
2022-09-05T23:11:26.521Z,1.00
2022-09-05T23:15:37.584Z,1.00
2022-09-05T23:19:39.178Z,1.00
2022-09-05T23:23:35.538Z,1.00
2022-09-05T23:26:57.644Z,1.10
2022-09-05T23:30:25.412Z,1.00
2022-09-05T23:33:46.262Z,1.00
2022-09-05T23:37:36.737Z,0.90
2022-09-05T23:41:27.761Z,0.80
2022-09-05T23:45:35.729Z,1.00
2022-09-05T23:49:06.122Z,1.00
2022-09-05T23:52:45.116Z,1.00
2022-09-05T23:56:07.911Z,0.80
2022-09-05T23:59:55.865Z,0.90
